sensor_id;sensor_type;location;lat;lon;timestamp;temperature;humidity
6307;DHT22;3186;54.062;9.962;2023-11-19T00:00:21;5.90;99.90
6307;DHT22;3186;54.062;9.962;2023-11-19T00:02:49;5.80;99.90
6307;DHT22;3186;54.062;9.962;2023-11-19T00:05:14;5.90;99.90
6307;DHT22;3186;54.062;9.962;2023-11-19T00:07:40;5.90;99.90
6307;DHT22;3186;54.062;9.962;2023-11-19T00:10:10;5.90;99.90
6307;DHT22;3186;54.062;9.962;2023-11-19T00:12:43;5.90;99.90
6307;DHT22;3186;54.062;9.962;2023-11-19T00:15:13;5.90;99.90
6307;DHT22;3186;54.062;9.962;2023-11-19T00:17:43;5.80;99.90
6307;DHT22;3186;54.062;9.962;2023-11-19T00:20:14;5.90;99.90
6307;DHT22;3186;54.062;9.962;2023-11-19T00:22:40;5.90;99.90
6307;DHT22;3186;54.062;9.962;2023-11-19T00:25:07;5.90;99.90
6307;DHT22;3186;54.062;9.962;2023-11-19T00:27:33;5.90;99.90
6307;DHT22;3186;54.062;9.962;2023-11-19T00:29:59;5.90;99.90
6307;DHT22;3186;54.062;9.962;2023-11-19T00:32:24;5.90;99.90
6307;DHT22;3186;54.062;9.962;2023-11-19T00:34:50;5.90;99.90
6307;DHT22;3186;54.062;9.962;2023-11-19T00:37:16;5.90;99.90
6307;DHT22;3186;54.062;9.962;2023-11-19T00:39:42;5.80;99.90
6307;DHT22;3186;54.062;9.962;2023-11-19T00:42:10;5.90;99.90
6307;DHT22;3186;54.062;9.962;2023-11-19T00:44:36;5.90;99.90
6307;DHT22;3186;54.062;9.962;2023-11-19T00:47:02;5.90;99.90
6307;DHT22;3186;54.062;9.962;2023-11-19T00:49:28;5.90;99.90
6307;DHT22;3186;54.062;9.962;2023-11-19T00:51:54;5.90;99.90
6307;DHT22;3186;54.062;9.962;2023-11-19T00:54:19;5.90;99.90
6307;DHT22;3186;54.062;9.962;2023-11-19T00:56:46;5.90;99.90
6307;DHT22;3186;54.062;9.962;2023-11-19T00:59:11;5.90;99.90
6307;DHT22;3186;54.062;9.962;2023-11-19T01:01:37;6.00;99.90
6307;DHT22;3186;54.062;9.962;2023-11-19T01:04:03;5.90;99.90
6307;DHT22;3186;54.062;9.962;2023-11-19T01:06:30;5.90;99.90
6307;DHT22;3186;54.062;9.962;2023-11-19T01:08:57;6.00;99.90
6307;DHT22;3186;54.062;9.962;2023-11-19T01:11:23;5.90;99.90
6307;DHT22;3186;54.062;9.962;2023-11-19T01:13:50;5.90;99.90
6307;DHT22;3186;54.062;9.962;2023-11-19T01:16:16;5.90;99.90
6307;DHT22;3186;54.062;9.962;2023-11-19T01:18:42;5.90;99.90
6307;DHT22;3186;54.062;9.962;2023-11-19T01:21:08;5.90;99.90
6307;DHT22;3186;54.062;9.962;2023-11-19T01:23:34;5.90;99.90
6307;DHT22;3186;54.062;9.962;2023-11-19T01:26:00;5.90;99.90
6307;DHT22;3186;54.062;9.962;2023-11-19T01:28:26;5.90;99.90
6307;DHT22;3186;54.062;9.962;2023-11-19T01:30:52;5.90;99.90
6307;DHT22;3186;54.062;9.962;2023-11-19T01:33:17;6.00;99.90
6307;DHT22;3186;54.062;9.962;2023-11-19T01:35:43;6.00;99.90
6307;DHT22;3186;54.062;9.962;2023-11-19T01:38:09;6.00;99.90
6307;DHT22;3186;54.062;9.962;2023-11-19T01:40:35;6.00;99.90
6307;DHT22;3186;54.062;9.962;2023-11-19T01:43:02;6.00;99.90
6307;DHT22;3186;54.062;9.962;2023-11-19T01:45:29;5.90;99.90
6307;DHT22;3186;54.062;9.962;2023-11-19T01:47:57;5.90;99.90
6307;DHT22;3186;54.062;9.962;2023-11-19T01:50:23;5.90;99.90
6307;DHT22;3186;54.062;9.962;2023-11-19T01:52:54;5.90;99.90
6307;DHT22;3186;54.062;9.962;2023-11-19T01:55:24;5.90;99.90
6307;DHT22;3186;54.062;9.962;2023-11-19T01:57:53;6.00;99.90
6307;DHT22;3186;54.062;9.962;2023-11-19T02:00:19;6.00;99.90
6307;DHT22;3186;54.062;9.962;2023-11-19T02:02:46;6.00;99.90
6307;DHT22;3186;54.062;9.962;2023-11-19T02:05:13;5.90;99.90
6307;DHT22;3186;54.062;9.962;2023-11-19T02:07:39;6.00;99.90
6307;DHT22;3186;54.062;9.962;2023-11-19T02:10:06;6.00;99.90
6307;DHT22;3186;54.062;9.962;2023-11-19T02:12:39;6.00;99.90
6307;DHT22;3186;54.062;9.962;2023-11-19T02:15:09;5.90;99.90
6307;DHT22;3186;54.062;9.962;2023-11-19T02:17:35;6.00;99.90
6307;DHT22;3186;54.062;9.962;2023-11-19T02:20:03;6.00;99.90
6307;DHT22;3186;54.062;9.962;2023-11-19T02:22:32;6.00;99.90
6307;DHT22;3186;54.062;9.962;2023-11-19T02:25:04;6.00;99.90
6307;DHT22;3186;54.062;9.962;2023-11-19T02:30:13;6.00;99.90
6307;DHT22;3186;54.062;9.962;2023-11-19T02:32:41;6.00;99.90
6307;DHT22;3186;54.062;9.962;2023-11-19T02:35:07;6.00;99.90
6307;DHT22;3186;54.062;9.962;2023-11-19T02:37:34;6.00;99.90
6307;DHT22;3186;54.062;9.962;2023-11-19T02:40:00;6.10;99.90
6307;DHT22;3186;54.062;9.962;2023-11-19T02:42:31;6.10;99.90
6307;DHT22;3186;54.062;9.962;2023-11-19T02:44:57;6.10;99.90
6307;DHT22;3186;54.062;9.962;2023-11-19T02:47:23;6.10;99.90
6307;DHT22;3186;54.062;9.962;2023-11-19T02:49:50;7.50;99.90
6307;DHT22;3186;54.062;9.962;2023-11-19T02:52:15;6.10;99.90
6307;DHT22;3186;54.062;9.962;2023-11-19T02:54:43;6.10;99.90
6307;DHT22;3186;54.062;9.962;2023-11-19T02:57:08;6.20;99.90
6307;DHT22;3186;54.062;9.962;2023-11-19T02:59:39;6.20;99.90
6307;DHT22;3186;54.062;9.962;2023-11-19T03:02:07;6.20;99.90
6307;DHT22;3186;54.062;9.962;2023-11-19T03:04:40;6.10;99.90
6307;DHT22;3186;54.062;9.962;2023-11-19T03:07:06;6.20;99.90
6307;DHT22;3186;54.062;9.962;2023-11-19T03:09:33;6.20;99.90
6307;DHT22;3186;54.062;9.962;2023-11-19T03:12:00;6.20;99.90
6307;DHT22;3186;54.062;9.962;2023-11-19T03:14:26;6.20;99.90
6307;DHT22;3186;54.062;9.962;2023-11-19T03:16:52;6.20;99.90
6307;DHT22;3186;54.062;9.962;2023-11-19T03:19:17;6.20;99.90
6307;DHT22;3186;54.062;9.962;2023-11-19T03:21:43;6.20;99.90
6307;DHT22;3186;54.062;9.962;2023-11-19T03:24:12;6.10;99.90
6307;DHT22;3186;54.062;9.962;2023-11-19T03:26:38;6.20;99.90
6307;DHT22;3186;54.062;9.962;2023-11-19T03:29:05;6.20;99.90
6307;DHT22;3186;54.062;9.962;2023-11-19T03:31:31;6.20;99.90
6307;DHT22;3186;54.062;9.962;2023-11-19T03:33:56;6.20;99.90
6307;DHT22;3186;54.062;9.962;2023-11-19T03:36:22;6.20;99.90
6307;DHT22;3186;54.062;9.962;2023-11-19T03:38:49;6.30;99.90
6307;DHT22;3186;54.062;9.962;2023-11-19T03:41:15;6.20;99.90
6307;DHT22;3186;54.062;9.962;2023-11-19T03:43:42;6.20;99.90
6307;DHT22;3186;54.062;9.962;2023-11-19T03:46:20;6.20;99.90
6307;DHT22;3186;54.062;9.962;2023-11-19T03:48:49;6.20;99.90
6307;DHT22;3186;54.062;9.962;2023-11-19T03:51:15;6.20;99.90
6307;DHT22;3186;54.062;9.962;2023-11-19T03:53:43;6.30;99.90
6307;DHT22;3186;54.062;9.962;2023-11-19T03:56:09;6.30;99.90
6307;DHT22;3186;54.062;9.962;2023-11-19T03:58:38;6.30;99.90
6307;DHT22;3186;54.062;9.962;2023-11-19T04:01:11;6.30;99.90
6307;DHT22;3186;54.062;9.962;2023-11-19T04:03:40;6.30;99.90
6307;DHT22;3186;54.062;9.962;2023-11-19T04:06:06;6.30;99.90
6307;DHT22;3186;54.062;9.962;2023-11-19T04:08:31;6.30;99.90
6307;DHT22;3186;54.062;9.962;2023-11-19T04:10:57;6.30;99.90
6307;DHT22;3186;54.062;9.962;2023-11-19T04:13:22;6.30;99.90
6307;DHT22;3186;54.062;9.962;2023-11-19T04:15:50;6.30;99.90
6307;DHT22;3186;54.062;9.962;2023-11-19T04:18:16;6.30;99.90
6307;DHT22;3186;54.062;9.962;2023-11-19T04:20:41;6.30;99.90
6307;DHT22;3186;54.062;9.962;2023-11-19T04:23:08;6.30;99.90
6307;DHT22;3186;54.062;9.962;2023-11-19T04:25:35;6.40;99.90
6307;DHT22;3186;54.062;9.962;2023-11-19T04:28:01;6.40;99.90
6307;DHT22;3186;54.062;9.962;2023-11-19T04:30:28;6.40;99.90
6307;DHT22;3186;54.062;9.962;2023-11-19T04:32:53;6.40;99.90
6307;DHT22;3186;54.062;9.962;2023-11-19T04:35:19;6.40;99.90
6307;DHT22;3186;54.062;9.962;2023-11-19T04:37:45;6.40;99.90
6307;DHT22;3186;54.062;9.962;2023-11-19T04:40:11;6.40;99.90
6307;DHT22;3186;54.062;9.962;2023-11-19T04:42:37;6.40;99.90
6307;DHT22;3186;54.062;9.962;2023-11-19T04:45:06;6.40;99.90
6307;DHT22;3186;54.062;9.962;2023-11-19T04:47:33;6.40;99.90
6307;DHT22;3186;54.062;9.962;2023-11-19T04:49:59;6.50;99.90
6307;DHT22;3186;54.062;9.962;2023-11-19T04:52:26;6.50;99.90
6307;DHT22;3186;54.062;9.962;2023-11-19T04:54:51;6.50;99.90
6307;DHT22;3186;54.062;9.962;2023-11-19T04:57:17;6.50;99.90
6307;DHT22;3186;54.062;9.962;2023-11-19T04:59:43;6.50;99.90
6307;DHT22;3186;54.062;9.962;2023-11-19T05:02:09;6.50;99.90
6307;DHT22;3186;54.062;9.962;2023-11-19T05:04:35;6.50;99.90
6307;DHT22;3186;54.062;9.962;2023-11-19T05:07:01;6.50;99.90
6307;DHT22;3186;54.062;9.962;2023-11-19T05:09:26;6.50;99.90
6307;DHT22;3186;54.062;9.962;2023-11-19T05:11:52;6.50;99.90
6307;DHT22;3186;54.062;9.962;2023-11-19T05:14:18;6.50;99.90
6307;DHT22;3186;54.062;9.962;2023-11-19T05:16:47;6.60;99.90
6307;DHT22;3186;54.062;9.962;2023-11-19T05:19:13;6.60;99.90
6307;DHT22;3186;54.062;9.962;2023-11-19T05:21:45;6.60;99.90
6307;DHT22;3186;54.062;9.962;2023-11-19T05:24:11;6.60;99.90
6307;DHT22;3186;54.062;9.962;2023-11-19T05:26:39;6.60;99.90
6307;DHT22;3186;54.062;9.962;2023-11-19T05:29:06;6.60;99.90
6307;DHT22;3186;54.062;9.962;2023-11-19T05:31:31;6.70;99.90
6307;DHT22;3186;54.062;9.962;2023-11-19T05:33:57;6.80;99.90
6307;DHT22;3186;54.062;9.962;2023-11-19T05:36:22;6.80;99.90
6307;DHT22;3186;54.062;9.962;2023-11-19T05:38:48;6.90;99.90
6307;DHT22;3186;54.062;9.962;2023-11-19T05:41:13;6.90;99.90
6307;DHT22;3186;54.062;9.962;2023-11-19T05:43:39;6.90;99.90
6307;DHT22;3186;54.062;9.962;2023-11-19T05:46:06;6.90;99.90
6307;DHT22;3186;54.062;9.962;2023-11-19T05:48:32;6.90;99.90
6307;DHT22;3186;54.062;9.962;2023-11-19T05:50:57;7.00;99.90
6307;DHT22;3186;54.062;9.962;2023-11-19T05:53:23;7.00;99.90
6307;DHT22;3186;54.062;9.962;2023-11-19T05:55:50;7.00;99.90
6307;DHT22;3186;54.062;9.962;2023-11-19T05:58:26;7.10;99.90
6307;DHT22;3186;54.062;9.962;2023-11-19T06:00:55;7.10;99.90
6307;DHT22;3186;54.062;9.962;2023-11-19T06:03:21;7.10;99.90
6307;DHT22;3186;54.062;9.962;2023-11-19T06:05:50;7.10;99.90
6307;DHT22;3186;54.062;9.962;2023-11-19T06:08:16;7.30;99.90
6307;DHT22;3186;54.062;9.962;2023-11-19T06:10:43;7.20;99.90
6307;DHT22;3186;54.062;9.962;2023-11-19T06:13:09;7.30;99.90
6307;DHT22;3186;54.062;9.962;2023-11-19T06:15:36;7.30;99.90
6307;DHT22;3186;54.062;9.962;2023-11-19T06:18:02;7.20;99.90
6307;DHT22;3186;54.062;9.962;2023-11-19T06:20:32;7.40;99.90
6307;DHT22;3186;54.062;9.962;2023-11-19T06:22:58;7.50;99.90
6307;DHT22;3186;54.062;9.962;2023-11-19T06:25:24;7.50;99.90
6307;DHT22;3186;54.062;9.962;2023-11-19T06:27:51;7.60;99.90
6307;DHT22;3186;54.062;9.962;2023-11-19T06:30:16;7.70;99.90
6307;DHT22;3186;54.062;9.962;2023-11-19T06:32:42;7.70;99.90
6307;DHT22;3186;54.062;9.962;2023-11-19T06:35:08;7.80;99.90
6307;DHT22;3186;54.062;9.962;2023-11-19T06:37:43;7.90;99.90
6307;DHT22;3186;54.062;9.962;2023-11-19T06:40:09;7.80;99.90
6307;DHT22;3186;54.062;9.962;2023-11-19T06:42:35;8.00;99.90
6307;DHT22;3186;54.062;9.962;2023-11-19T06:45:02;7.80;99.90
6307;DHT22;3186;54.062;9.962;2023-11-19T06:47:28;8.10;99.90
6307;DHT22;3186;54.062;9.962;2023-11-19T06:49:54;8.20;99.90
6307;DHT22;3186;54.062;9.962;2023-11-19T06:52:20;8.40;99.90
6307;DHT22;3186;54.062;9.962;2023-11-19T06:54:46;8.50;99.90
6307;DHT22;3186;54.062;9.962;2023-11-19T06:57:12;8.60;99.90
6307;DHT22;3186;54.062;9.962;2023-11-19T06:59:39;8.70;99.90
6307;DHT22;3186;54.062;9.962;2023-11-19T07:02:05;8.80;99.90
6307;DHT22;3186;54.062;9.962;2023-11-19T07:04:32;9.00;99.90
6307;DHT22;3186;54.062;9.962;2023-11-19T07:07:01;9.10;99.90
6307;DHT22;3186;54.062;9.962;2023-11-19T07:09:27;9.20;99.90
6307;DHT22;3186;54.062;9.962;2023-11-19T07:11:53;9.40;99.90
6307;DHT22;3186;54.062;9.962;2023-11-19T07:14:19;9.30;99.90
6307;DHT22;3186;54.062;9.962;2023-11-19T07:16:45;9.30;99.90
6307;DHT22;3186;54.062;9.962;2023-11-19T07:19:11;9.50;99.90
6307;DHT22;3186;54.062;9.962;2023-11-19T07:21:40;9.60;99.90
6307;DHT22;3186;54.062;9.962;2023-11-19T07:24:09;9.60;99.90
6307;DHT22;3186;54.062;9.962;2023-11-19T07:26:35;9.60;99.90
6307;DHT22;3186;54.062;9.962;2023-11-19T07:29:02;9.70;99.90
6307;DHT22;3186;54.062;9.962;2023-11-19T07:31:28;9.70;99.90
6307;DHT22;3186;54.062;9.962;2023-11-19T07:33:54;9.90;99.90
6307;DHT22;3186;54.062;9.962;2023-11-19T07:36:19;9.80;99.90
6307;DHT22;3186;54.062;9.962;2023-11-19T07:38:46;9.70;99.90
6307;DHT22;3186;54.062;9.962;2023-11-19T07:41:12;9.80;99.90
6307;DHT22;3186;54.062;9.962;2023-11-19T07:43:43;9.80;99.90
6307;DHT22;3186;54.062;9.962;2023-11-19T07:46:13;10.00;99.90
6307;DHT22;3186;54.062;9.962;2023-11-19T07:48:40;9.90;99.90
6307;DHT22;3186;54.062;9.962;2023-11-19T07:51:06;9.90;99.90
6307;DHT22;3186;54.062;9.962;2023-11-19T07:53:32;9.80;99.90
6307;DHT22;3186;54.062;9.962;2023-11-19T07:56:00;9.90;99.90
6307;DHT22;3186;54.062;9.962;2023-11-19T07:58:26;10.20;99.90
6307;DHT22;3186;54.062;9.962;2023-11-19T08:00:52;10.10;99.90
6307;DHT22;3186;54.062;9.962;2023-11-19T08:03:17;10.00;99.90
6307;DHT22;3186;54.062;9.962;2023-11-19T08:05:45;10.10;99.90
6307;DHT22;3186;54.062;9.962;2023-11-19T08:08:11;10.10;99.90
6307;DHT22;3186;54.062;9.962;2023-11-19T08:10:37;10.20;99.90
6307;DHT22;3186;54.062;9.962;2023-11-19T08:13:03;10.20;99.90
6307;DHT22;3186;54.062;9.962;2023-11-19T08:15:29;10.20;99.90
6307;DHT22;3186;54.062;9.962;2023-11-19T08:17:54;10.10;99.90
6307;DHT22;3186;54.062;9.962;2023-11-19T08:20:20;10.30;99.90
6307;DHT22;3186;54.062;9.962;2023-11-19T08:22:45;10.30;99.90
6307;DHT22;3186;54.062;9.962;2023-11-19T08:25:11;10.20;99.90
6307;DHT22;3186;54.062;9.962;2023-11-19T08:27:37;10.20;99.90
6307;DHT22;3186;54.062;9.962;2023-11-19T08:30:03;10.30;99.90
6307;DHT22;3186;54.062;9.962;2023-11-19T08:32:29;10.30;99.90
6307;DHT22;3186;54.062;9.962;2023-11-19T08:34:54;10.30;99.90
6307;DHT22;3186;54.062;9.962;2023-11-19T08:37:21;10.10;99.90
6307;DHT22;3186;54.062;9.962;2023-11-19T08:39:48;10.20;99.90
6307;DHT22;3186;54.062;9.962;2023-11-19T08:42:13;10.30;99.90
6307;DHT22;3186;54.062;9.962;2023-11-19T08:44:39;10.40;99.90
6307;DHT22;3186;54.062;9.962;2023-11-19T08:47:09;10.40;99.90
6307;DHT22;3186;54.062;9.962;2023-11-19T08:49:34;10.50;99.90
6307;DHT22;3186;54.062;9.962;2023-11-19T08:52:00;10.50;99.90
6307;DHT22;3186;54.062;9.962;2023-11-19T08:54:26;10.30;99.90
6307;DHT22;3186;54.062;9.962;2023-11-19T08:56:51;10.40;99.90
6307;DHT22;3186;54.062;9.962;2023-11-19T08:59:17;10.50;99.90
6307;DHT22;3186;54.062;9.962;2023-11-19T09:01:44;10.40;99.90
6307;DHT22;3186;54.062;9.962;2023-11-19T09:04:10;10.00;99.90
6307;DHT22;3186;54.062;9.962;2023-11-19T09:06:36;10.40;99.90
6307;DHT22;3186;54.062;9.962;2023-11-19T09:09:02;10.50;99.90
6307;DHT22;3186;54.062;9.962;2023-11-19T09:11:31;10.40;99.90
6307;DHT22;3186;54.062;9.962;2023-11-19T09:13:57;10.50;99.90
6307;DHT22;3186;54.062;9.962;2023-11-19T09:16:23;10.60;99.90
6307;DHT22;3186;54.062;9.962;2023-11-19T09:18:48;10.60;99.90
6307;DHT22;3186;54.062;9.962;2023-11-19T09:21:14;10.60;99.90
6307;DHT22;3186;54.062;9.962;2023-11-19T09:23:39;10.60;99.90
6307;DHT22;3186;54.062;9.962;2023-11-19T09:26:06;10.60;99.90
6307;DHT22;3186;54.062;9.962;2023-11-19T09:28:33;10.50;99.90
6307;DHT22;3186;54.062;9.962;2023-11-19T09:30:59;10.60;99.90
6307;DHT22;3186;54.062;9.962;2023-11-19T09:33:25;10.50;99.90
6307;DHT22;3186;54.062;9.962;2023-11-19T09:35:51;10.40;99.90
6307;DHT22;3186;54.062;9.962;2023-11-19T09:38:17;10.60;99.90
6307;DHT22;3186;54.062;9.962;2023-11-19T09:40:43;10.60;99.90
6307;DHT22;3186;54.062;9.962;2023-11-19T09:43:09;10.70;99.90
6307;DHT22;3186;54.062;9.962;2023-11-19T09:46:04;10.60;99.90
6307;DHT22;3186;54.062;9.962;2023-11-19T09:48:33;10.70;99.90
6307;DHT22;3186;54.062;9.962;2023-11-19T09:51:01;10.70;99.90
6307;DHT22;3186;54.062;9.962;2023-11-19T09:53:27;10.70;99.90
6307;DHT22;3186;54.062;9.962;2023-11-19T09:55:53;10.70;99.90
6307;DHT22;3186;54.062;9.962;2023-11-19T09:58:20;10.50;99.90
6307;DHT22;3186;54.062;9.962;2023-11-19T10:00:47;10.70;99.90
6307;DHT22;3186;54.062;9.962;2023-11-19T10:03:14;10.70;99.90
6307;DHT22;3186;54.062;9.962;2023-11-19T10:05:39;10.70;99.90
6307;DHT22;3186;54.062;9.962;2023-11-19T10:08:06;10.70;99.90
6307;DHT22;3186;54.062;9.962;2023-11-19T10:10:33;10.60;99.90
6307;DHT22;3186;54.062;9.962;2023-11-19T10:13:00;10.60;99.90
6307;DHT22;3186;54.062;9.962;2023-11-19T10:15:26;10.70;99.90
6307;DHT22;3186;54.062;9.962;2023-11-19T10:17:58;10.60;99.90
6307;DHT22;3186;54.062;9.962;2023-11-19T10:20:24;10.70;99.90
6307;DHT22;3186;54.062;9.962;2023-11-19T10:22:53;10.60;99.90
6307;DHT22;3186;54.062;9.962;2023-11-19T10:25:24;10.70;99.90
6307;DHT22;3186;54.062;9.962;2023-11-19T10:27:54;10.80;99.90
6307;DHT22;3186;54.062;9.962;2023-11-19T10:30:25;10.90;99.90
6307;DHT22;3186;54.062;9.962;2023-11-19T10:33:04;11.00;99.90
6307;DHT22;3186;54.062;9.962;2023-11-19T10:36:14;10.90;99.90
6307;DHT22;3186;54.062;9.962;2023-11-19T10:38:22;11.10;99.90
6307;DHT22;3186;54.062;9.962;2023-11-19T10:40:49;11.20;99.90
6307;DHT22;3186;54.062;9.962;2023-11-19T10:43:19;11.10;99.90
6307;DHT22;3186;54.062;9.962;2023-11-19T10:45:45;11.00;99.90
6307;DHT22;3186;54.062;9.962;2023-11-19T10:48:11;11.00;99.90
6307;DHT22;3186;54.062;9.962;2023-11-19T10:50:42;11.10;99.90
6307;DHT22;3186;54.062;9.962;2023-11-19T10:53:10;11.10;99.90
6307;DHT22;3186;54.062;9.962;2023-11-19T10:55:38;11.00;99.90
6307;DHT22;3186;54.062;9.962;2023-11-19T10:58:05;11.00;99.90
6307;DHT22;3186;54.062;9.962;2023-11-19T11:00:43;10.90;99.90
6307;DHT22;3186;54.062;9.962;2023-11-19T11:03:20;10.90;99.90
6307;DHT22;3186;54.062;9.962;2023-11-19T11:05:49;11.00;99.90
6307;DHT22;3186;54.062;9.962;2023-11-19T11:08:16;11.00;99.90
6307;DHT22;3186;54.062;9.962;2023-11-19T11:10:53;11.00;99.90
6307;DHT22;3186;54.062;9.962;2023-11-19T11:13:22;11.00;99.90
6307;DHT22;3186;54.062;9.962;2023-11-19T11:15:49;11.00;99.90
6307;DHT22;3186;54.062;9.962;2023-11-19T11:18:16;10.90;99.90
6307;DHT22;3186;54.062;9.962;2023-11-19T11:20:45;11.00;99.90
6307;DHT22;3186;54.062;9.962;2023-11-19T11:28:52;11.00;99.90
6307;DHT22;3186;54.062;9.962;2023-11-19T11:31:53;11.00;99.90
6307;DHT22;3186;54.062;9.962;2023-11-19T11:37:32;10.90;99.90
6307;DHT22;3186;54.062;9.962;2023-11-19T11:39:58;10.90;99.90
6307;DHT22;3186;54.062;9.962;2023-11-19T11:50:17;10.90;99.90
6307;DHT22;3186;54.062;9.962;2023-11-19T11:55:28;11.10;99.90
6307;DHT22;3186;54.062;9.962;2023-11-19T11:57:59;11.00;99.90
6307;DHT22;3186;54.062;9.962;2023-11-19T12:02:57;11.10;99.90
6307;DHT22;3186;54.062;9.962;2023-11-19T12:05:23;11.00;99.90
6307;DHT22;3186;54.062;9.962;2023-11-19T12:07:56;11.00;99.90
6307;DHT22;3186;54.062;9.962;2023-11-19T12:10:24;11.00;99.90
6307;DHT22;3186;54.062;9.962;2023-11-19T12:12:52;11.10;99.90
6307;DHT22;3186;54.062;9.962;2023-11-19T12:15:19;11.00;99.90
6307;DHT22;3186;54.062;9.962;2023-11-19T12:17:50;11.10;99.90
6307;DHT22;3186;54.062;9.962;2023-11-19T12:20:20;11.00;99.90
6307;DHT22;3186;54.062;9.962;2023-11-19T12:22:47;11.10;99.90
6307;DHT22;3186;54.062;9.962;2023-11-19T12:25:15;11.10;99.90
6307;DHT22;3186;54.062;9.962;2023-11-19T12:27:47;11.10;99.90
6307;DHT22;3186;54.062;9.962;2023-11-19T12:30:17;11.10;99.90
6307;DHT22;3186;54.062;9.962;2023-11-19T12:32:45;11.10;99.90
6307;DHT22;3186;54.062;9.962;2023-11-19T12:35:12;11.10;99.90
6307;DHT22;3186;54.062;9.962;2023-11-19T12:37:50;11.10;99.90
6307;DHT22;3186;54.062;9.962;2023-11-19T12:40:24;11.10;99.90
6307;DHT22;3186;54.062;9.962;2023-11-19T12:42:54;11.10;99.90
6307;DHT22;3186;54.062;9.962;2023-11-19T12:45:20;11.10;99.90
6307;DHT22;3186;54.062;9.962;2023-11-19T12:47:47;11.10;99.90
6307;DHT22;3186;54.062;9.962;2023-11-19T12:50:15;11.00;99.90
6307;DHT22;3186;54.062;9.962;2023-11-19T12:52:43;11.10;99.90
6307;DHT22;3186;54.062;9.962;2023-11-19T12:55:28;11.10;99.90
6307;DHT22;3186;54.062;9.962;2023-11-19T12:57:54;11.10;99.90
6307;DHT22;3186;54.062;9.962;2023-11-19T13:00:25;11.00;99.90
6307;DHT22;3186;54.062;9.962;2023-11-19T13:02:55;11.00;99.90
6307;DHT22;3186;54.062;9.962;2023-11-19T13:05:22;11.00;99.90
6307;DHT22;3186;54.062;9.962;2023-11-19T13:07:48;11.00;99.90
6307;DHT22;3186;54.062;9.962;2023-11-19T13:10:14;11.00;99.90
6307;DHT22;3186;54.062;9.962;2023-11-19T13:12:40;10.90;99.90
6307;DHT22;3186;54.062;9.962;2023-11-19T13:15:06;11.00;99.90
6307;DHT22;3186;54.062;9.962;2023-11-19T13:17:32;11.00;99.90
6307;DHT22;3186;54.062;9.962;2023-11-19T13:19:57;11.00;99.90
6307;DHT22;3186;54.062;9.962;2023-11-19T13:22:23;11.00;99.90
6307;DHT22;3186;54.062;9.962;2023-11-19T13:24:49;11.00;99.90
6307;DHT22;3186;54.062;9.962;2023-11-19T13:27:14;11.00;99.90
6307;DHT22;3186;54.062;9.962;2023-11-19T13:29:40;11.10;99.90
6307;DHT22;3186;54.062;9.962;2023-11-19T13:32:06;11.00;99.90
6307;DHT22;3186;54.062;9.962;2023-11-19T13:34:31;11.00;99.90
6307;DHT22;3186;54.062;9.962;2023-11-19T13:36:57;11.00;99.90
6307;DHT22;3186;54.062;9.962;2023-11-19T13:39:23;10.90;99.90
6307;DHT22;3186;54.062;9.962;2023-11-19T13:41:49;11.00;99.90
6307;DHT22;3186;54.062;9.962;2023-11-19T13:44:16;11.00;99.90
6307;DHT22;3186;54.062;9.962;2023-11-19T13:46:45;11.00;99.90
6307;DHT22;3186;54.062;9.962;2023-11-19T13:49:11;11.00;99.90
6307;DHT22;3186;54.062;9.962;2023-11-19T13:51:37;11.10;99.90
6307;DHT22;3186;54.062;9.962;2023-11-19T13:54:02;11.00;99.90
6307;DHT22;3186;54.062;9.962;2023-11-19T13:56:28;11.00;99.90
6307;DHT22;3186;54.062;9.962;2023-11-19T13:58:54;11.00;99.90
6307;DHT22;3186;54.062;9.962;2023-11-19T14:01:19;11.00;99.90
6307;DHT22;3186;54.062;9.962;2023-11-19T14:03:45;11.00;99.90
6307;DHT22;3186;54.062;9.962;2023-11-19T14:06:11;11.00;99.90
6307;DHT22;3186;54.062;9.962;2023-11-19T14:08:38;10.90;99.90
6307;DHT22;3186;54.062;9.962;2023-11-19T14:11:03;10.90;99.90
6307;DHT22;3186;54.062;9.962;2023-11-19T14:13:30;10.90;99.90
6307;DHT22;3186;54.062;9.962;2023-11-19T14:15:56;11.00;99.90
6307;DHT22;3186;54.062;9.962;2023-11-19T14:18:22;11.00;99.90
6307;DHT22;3186;54.062;9.962;2023-11-19T14:20:48;10.90;99.90
6307;DHT22;3186;54.062;9.962;2023-11-19T14:23:14;11.00;99.90
6307;DHT22;3186;54.062;9.962;2023-11-19T14:25:39;10.90;99.90
6307;DHT22;3186;54.062;9.962;2023-11-19T14:28:06;10.90;99.90
6307;DHT22;3186;54.062;9.962;2023-11-19T14:30:31;10.90;99.90
6307;DHT22;3186;54.062;9.962;2023-11-19T14:32:57;10.80;99.90
6307;DHT22;3186;54.062;9.962;2023-11-19T14:35:23;10.80;99.90
6307;DHT22;3186;54.062;9.962;2023-11-19T14:37:49;10.90;99.90
6307;DHT22;3186;54.062;9.962;2023-11-19T14:40:15;10.80;99.90
6307;DHT22;3186;54.062;9.962;2023-11-19T14:42:40;10.80;99.90
6307;DHT22;3186;54.062;9.962;2023-11-19T14:45:07;10.80;99.90
6307;DHT22;3186;54.062;9.962;2023-11-19T14:47:33;10.80;99.90
6307;DHT22;3186;54.062;9.962;2023-11-19T14:49:58;10.80;99.90
6307;DHT22;3186;54.062;9.962;2023-11-19T14:52:24;10.70;99.90
6307;DHT22;3186;54.062;9.962;2023-11-19T14:54:49;10.70;99.90
6307;DHT22;3186;54.062;9.962;2023-11-19T14:57:16;10.70;99.90
6307;DHT22;3186;54.062;9.962;2023-11-19T14:59:42;10.70;99.90
6307;DHT22;3186;54.062;9.962;2023-11-19T15:02:08;10.70;99.90
6307;DHT22;3186;54.062;9.962;2023-11-19T15:04:34;10.70;99.90
6307;DHT22;3186;54.062;9.962;2023-11-19T15:07:00;10.60;99.90
6307;DHT22;3186;54.062;9.962;2023-11-19T15:09:26;10.60;99.90
6307;DHT22;3186;54.062;9.962;2023-11-19T15:11:55;10.70;99.90
6307;DHT22;3186;54.062;9.962;2023-11-19T15:14:21;10.60;99.90
6307;DHT22;3186;54.062;9.962;2023-11-19T15:16:46;10.50;99.90
6307;DHT22;3186;54.062;9.962;2023-11-19T15:19:13;10.50;99.90
6307;DHT22;3186;54.062;9.962;2023-11-19T15:21:42;10.50;99.90
6307;DHT22;3186;54.062;9.962;2023-11-19T15:24:09;10.50;99.90
6307;DHT22;3186;54.062;9.962;2023-11-19T15:26:36;10.50;99.90
6307;DHT22;3186;54.062;9.962;2023-11-19T15:29:03;10.50;99.90
6307;DHT22;3186;54.062;9.962;2023-11-19T15:31:29;10.40;99.90
6307;DHT22;3186;54.062;9.962;2023-11-19T15:33:55;10.50;99.90
6307;DHT22;3186;54.062;9.962;2023-11-19T15:36:20;10.50;99.90
6307;DHT22;3186;54.062;9.962;2023-11-19T15:38:46;10.50;99.90
6307;DHT22;3186;54.062;9.962;2023-11-19T15:41:12;10.50;99.90
6307;DHT22;3186;54.062;9.962;2023-11-19T15:43:38;10.40;99.90
6307;DHT22;3186;54.062;9.962;2023-11-19T15:46:07;10.40;99.90
6307;DHT22;3186;54.062;9.962;2023-11-19T15:48:33;10.40;99.90
6307;DHT22;3186;54.062;9.962;2023-11-19T15:51:00;10.40;99.90
6307;DHT22;3186;54.062;9.962;2023-11-19T15:53:26;10.40;99.90
6307;DHT22;3186;54.062;9.962;2023-11-19T15:55:52;10.40;99.90
6307;DHT22;3186;54.062;9.962;2023-11-19T15:58:20;10.40;99.90
6307;DHT22;3186;54.062;9.962;2023-11-19T16:00:48;10.40;99.90
6307;DHT22;3186;54.062;9.962;2023-11-19T16:03:14;10.40;99.90
6307;DHT22;3186;54.062;9.962;2023-11-19T16:05:39;10.40;99.90
6307;DHT22;3186;54.062;9.962;2023-11-19T16:08:05;10.40;99.90
6307;DHT22;3186;54.062;9.962;2023-11-19T16:10:31;10.40;99.90
6307;DHT22;3186;54.062;9.962;2023-11-19T16:12:57;10.30;99.90
6307;DHT22;3186;54.062;9.962;2023-11-19T16:15:22;10.30;99.90
6307;DHT22;3186;54.062;9.962;2023-11-19T16:17:48;10.30;99.90
6307;DHT22;3186;54.062;9.962;2023-11-19T16:20:14;10.30;99.90
6307;DHT22;3186;54.062;9.962;2023-11-19T16:22:40;10.30;99.90
6307;DHT22;3186;54.062;9.962;2023-11-19T16:25:09;10.30;99.90
6307;DHT22;3186;54.062;9.962;2023-11-19T16:27:35;10.30;99.90
6307;DHT22;3186;54.062;9.962;2023-11-19T16:30:00;10.30;99.90
6307;DHT22;3186;54.062;9.962;2023-11-19T16:32:26;10.30;99.90